Time;durP1;ratioP1;P1;durP2;ratioP2;P2;SDS_P1;SDS_P2;PMS_P1;PMS_P2;Temp;Humidity;BMP_temperature;BMP_pressure;BME280_temperature;BME280_humidity;BME280_pressure;Samples;Min_cycle;Max_cycle;Signal;HPM_P1;HPM_P2
2022/04/07 00:00:50;;;;;;;;;;;15.60;61.30;;;;;;4997122;28;20024;-89
2022/04/07 00:03:15;;;;;;;;;;;15.70;61.60;;;;;;4978800;28;20635;-89
2022/04/07 00:05:41;;;;;;;;;;;15.70;61.50;;;;;;4998849;28;20322;-90
2022/04/07 00:08:06;;;;;;;;;;;15.70;61.60;;;;;;4978368;28;20294;-89
2022/04/07 00:10:33;;;;;;;;;;;15.70;61.60;;;;;;4996368;28;19918;-90
2022/04/07 00:12:58;;;;;;;;;;;15.70;61.20;;;;;;4979530;28;19918;-89
2022/04/07 00:15:23;;;;;;;;;;;15.80;61.50;;;;;;4995428;28;19921;-90
2022/04/07 00:17:49;;;;;;;;;;;15.80;61.30;;;;;;4999042;28;20281;-90
2022/04/07 00:20:14;;;;;;;;;;;15.70;61.50;;;;;;5016187;28;19932;-89
2022/04/07 00:22:41;;;;;;;;;;;15.60;60.50;;;;;;4996741;28;19925;-90
2022/04/07 00:25:06;;;;;;;;;;;15.60;60.90;;;;;;4979468;28;20254;-91
2022/04/07 00:27:32;;;;;;;;;;;15.70;60.80;;;;;;4997726;28;19914;-89
2022/04/07 00:29:57;;;;;;;;;;;15.70;61.10;;;;;;4979943;28;20004;-89
2022/04/07 00:32:23;;;;;;;;;;;15.70;60.90;;;;;;4996558;28;19918;-90
2022/04/07 00:34:54;;;;;;;;;;;15.80;60.90;;;;;;4980000;28;19953;-88
2022/04/07 00:37:22;;;;;;;;;;;15.70;60.40;;;;;;4979618;28;19956;-88
2022/04/07 00:39:48;;;;;;;;;;;15.70;60.60;;;;;;4979337;28;19914;-89
2022/04/07 00:42:14;;;;;;;;;;;15.70;60.50;;;;;;4978462;28;20366;-89
2022/04/07 00:44:39;;;;;;;;;;;15.70;61.00;;;;;;4973822;28;19925;-88
2022/04/07 00:47:05;;;;;;;;;;;15.70;60.90;;;;;;4985443;28;19918;-89
2022/04/07 00:49:31;;;;;;;;;;;15.70;60.70;;;;;;4991470;28;20367;-89
2022/04/07 00:51:56;;;;;;;;;;;15.60;60.80;;;;;;4985890;28;19921;-89
2022/04/07 00:54:22;;;;;;;;;;;15.60;60.90;;;;;;4993428;28;19929;-89
2022/04/07 00:56:47;;;;;;;;;;;15.70;60.90;;;;;;4970722;28;19922;-88
2022/04/07 00:59:15;;;;;;;;;;;15.60;61.20;;;;;;4988954;28;19918;-89
2022/04/07 01:01:40;;;;;;;;;;;15.60;61.20;;;;;;4996609;28;20389;-89
2022/04/07 01:04:06;;;;;;;;;;;15.60;61.10;;;;;;4976178;28;19918;-89
2022/04/07 01:06:31;;;;;;;;;;;15.60;61.20;;;;;;4995966;28;19922;-88
2022/04/07 01:08:57;;;;;;;;;;;15.50;61.00;;;;;;4990375;28;19914;-89
2022/04/07 01:11:24;;;;;;;;;;;15.50;61.30;;;;;;4961196;28;20030;-89
2022/04/07 01:13:50;;;;;;;;;;;15.50;61.10;;;;;;4966915;28;19918;-89
2022/04/07 01:16:16;;;;;;;;;;;15.60;61.40;;;;;;4976225;28;20281;-88
2022/04/07 01:18:42;;;;;;;;;;;15.60;61.40;;;;;;4972119;28;19913;-89
2022/04/07 01:21:08;;;;;;;;;;;15.60;61.10;;;;;;4993938;28;19952;-90
2022/04/07 01:23:35;;;;;;;;;;;15.60;61.20;;;;;;4980101;28;19922;-90
2022/04/07 01:26:01;;;;;;;;;;;15.60;61.20;;;;;;4979137;28;20358;-89
2022/04/07 01:28:27;;;;;;;;;;;15.50;61.20;;;;;;4988879;28;19918;-89
2022/04/07 01:30:52;;;;;;;;;;;15.40;61.50;;;;;;4977826;28;19961;-89
2022/04/07 01:33:18;;;;;;;;;;;15.20;61.80;;;;;;4979271;28;19918;-89
2022/04/07 01:35:44;;;;;;;;;;;15.10;62.00;;;;;;4987485;28;19918;-91
2022/04/07 01:38:10;;;;;;;;;;;15.00;62.00;;;;;;4993483;28;19921;-90
2022/04/07 01:40:37;;;;;;;;;;;15.00;62.30;;;;;;4985211;28;19960;-90
2022/04/07 01:43:04;;;;;;;;;;;14.90;62.40;;;;;;4995815;28;19918;-89
2022/04/07 01:47:55;;;;;;;;;;;14.90;62.60;;;;;;4988572;28;19922;-90
2022/04/07 01:50:23;;;;;;;;;;;14.90;62.40;;;;;;4971449;28;20333;-90
2022/04/07 01:52:48;;;;;;;;;;;14.90;62.50;;;;;;4982754;28;19918;-90
2022/04/07 01:55:15;;;;;;;;;;;14.90;62.70;;;;;;4989947;28;19996;-91
2022/04/07 01:57:41;;;;;;;;;;;14.90;62.70;;;;;;4995823;28;19920;-90
2022/04/07 02:00:06;;;;;;;;;;;15.00;62.80;;;;;;4998263;28;20293;-90
2022/04/07 02:02:32;;;;;;;;;;;15.00;62.90;;;;;;4972850;28;20382;-89
2022/04/07 02:04:59;;;;;;;;;;;15.10;62.60;;;;;;4978235;28;19921;-90
2022/04/07 02:07:31;;;;;;;;;;;15.10;62.50;;;;;;4959036;28;19926;-88
2022/04/07 02:09:57;;;;;;;;;;;15.10;62.50;;;;;;4962548;28;20005;-89
2022/04/07 02:12:23;;;;;;;;;;;15.00;62.20;;;;;;4957091;28;20404;-89
2022/04/07 02:14:49;;;;;;;;;;;15.00;62.20;;;;;;4968997;28;20012;-91
2022/04/07 02:17:20;;;;;;;;;;;14.90;62.20;;;;;;4988820;28;19925;-90
2022/04/07 02:19:53;;;;;;;;;;;14.90;62.20;;;;;;4993608;28;19914;-90
2022/04/07 02:22:19;;;;;;;;;;;14.80;62.30;;;;;;4994584;28;20441;-89
2022/04/07 02:24:44;;;;;;;;;;;14.70;62.20;;;;;;4980903;28;19976;-89
2022/04/07 02:27:10;;;;;;;;;;;14.70;62.20;;;;;;4980003;28;19921;-90
2022/04/07 02:29:35;;;;;;;;;;;14.70;62.30;;;;;;4999717;28;19916;-89
2022/04/07 02:32:01;;;;;;;;;;;14.60;62.00;;;;;;4982126;28;20314;-91
2022/04/07 02:34:26;;;;;;;;;;;14.60;62.00;;;;;;4982374;28;19913;-89
2022/04/07 02:36:52;;;;;;;;;;;14.50;62.00;;;;;;4998951;28;19960;-89
2022/04/07 02:39:17;;;;;;;;;;;14.60;62.50;;;;;;4981708;28;20123;-90
2022/04/07 02:41:43;;;;;;;;;;;14.60;62.40;;;;;;4981929;28;20235;-90
2022/04/07 02:44:08;;;;;;;;;;;14.60;62.20;;;;;;4982000;28;19925;-90
2022/04/07 02:46:34;;;;;;;;;;;14.70;62.40;;;;;;4998344;28;19961;-90
2022/04/07 02:48:59;;;;;;;;;;;14.50;62.50;;;;;;4982064;28;19980;-90
2022/04/07 02:51:24;;;;;;;;;;;14.60;62.50;;;;;;4999990;28;19987;-89
2022/04/07 02:53:51;;;;;;;;;;;14.70;62.10;;;;;;4998050;28;19989;-90
2022/04/07 02:56:16;;;;;;;;;;;14.80;62.20;;;;;;4981415;28;19937;-90
2022/04/07 02:58:42;;;;;;;;;;;14.70;62.00;;;;;;4982219;28;20326;-89
2022/04/07 03:01:14;;;;;;;;;;;14.80;61.60;;;;;;4999232;28;20274;-89
2022/04/07 03:03:40;;;;;;;;;;;14.90;61.80;;;;;;4999183;28;19965;-90
2022/04/07 03:06:05;;;;;;;;;;;15.00;61.40;;;;;;4974904;28;19922;-89
2022/04/07 03:08:32;;;;;;;;;;;15.00;61.40;;;;;;4998059;28;20004;-90
2022/04/07 03:10:58;;;;;;;;;;;15.00;61.00;;;;;;4986873;28;20346;-90
2022/04/07 03:13:24;;;;;;;;;;;15.00;61.30;;;;;;4997467;28;19914;-90
2022/04/07 03:15:49;;;;;;;;;;;15.00;61.50;;;;;;4997256;28;19926;-90
2022/04/07 03:18:15;;;;;;;;;;;15.00;61.60;;;;;;4991161;28;19973;-90
2022/04/07 03:20:40;;;;;;;;;;;15.00;61.10;;;;;;4983549;28;19914;-92
2022/04/07 03:23:06;;;;;;;;;;;14.80;61.40;;;;;;4993213;28;19952;-91
2022/04/07 03:25:31;;;;;;;;;;;14.70;61.70;;;;;;4981455;28;19921;-91
2022/04/07 03:27:57;;;;;;;;;;;14.70;61.80;;;;;;4989752;28;19914;-91
2022/04/07 03:30:22;;;;;;;;;;;14.50;62.40;;;;;;4981808;28;19914;-91
2022/04/07 03:32:48;;;;;;;;;;;14.50;62.60;;;;;;4999094;28;19996;-92
2022/04/07 03:35:13;;;;;;;;;;;14.60;62.60;;;;;;4974940;28;19922;-91
2022/04/07 03:37:39;;;;;;;;;;;14.60;62.70;;;;;;4974271;28;19945;-92
2022/04/07 03:40:05;;;;;;;;;;;14.60;62.80;;;;;;4978501;28;20020;-91
2022/04/07 03:42:30;;;;;;;;;;;14.70;62.70;;;;;;4994369;28;19929;-92
2022/04/07 03:44:56;;;;;;;;;;;14.70;62.80;;;;;;4977975;28;19913;-91
2022/04/07 03:47:22;;;;;;;;;;;14.70;62.60;;;;;;4974014;28;19977;-90
2022/04/07 03:49:48;;;;;;;;;;;14.80;62.40;;;;;;4997870;28;20335;-90
2022/04/07 03:52:15;;;;;;;;;;;14.80;62.20;;;;;;4997051;28;20009;-91
2022/04/07 03:54:40;;;;;;;;;;;14.80;62.40;;;;;;4978130;28;20028;-92
2022/04/07 03:57:06;;;;;;;;;;;14.80;62.30;;;;;;4984486;28;20006;-91
2022/04/07 03:59:38;;;;;;;;;;;14.70;62.30;;;;;;4989818;28;20612;-91
2022/04/07 04:02:06;;;;;;;;;;;14.70;62.40;;;;;;4980463;28;19988;-92
2022/04/07 04:04:32;;;;;;;;;;;14.70;62.50;;;;;;4963426;28;19918;-91
2022/04/07 04:06:58;;;;;;;;;;;14.70;62.50;;;;;;4984819;28;19957;-91
2022/04/07 04:09:23;;;;;;;;;;;14.60;62.50;;;;;;4996605;28;19913;-91
2022/04/07 04:11:49;;;;;;;;;;;14.60;62.60;;;;;;4980236;28;19929;-91
2022/04/07 04:14:14;;;;;;;;;;;14.70;62.50;;;;;;4989924;28;19922;-90
2022/04/07 04:16:41;;;;;;;;;;;14.70;62.70;;;;;;5002356;28;19914;-89
2022/04/07 04:19:07;;;;;;;;;;;14.70;62.70;;;;;;4981884;28;20362;-90
2022/04/07 04:21:32;;;;;;;;;;;14.70;62.60;;;;;;4990472;28;19921;-90
2022/04/07 04:23:58;;;;;;;;;;;14.70;62.60;;;;;;4991150;28;19926;-91
2022/04/07 04:26:23;;;;;;;;;;;14.80;62.50;;;;;;4997348;28;19897;-91
2022/04/07 04:28:49;;;;;;;;;;;14.70;62.00;;;;;;4996499;28;19914;-90
2022/04/07 04:31:14;;;;;;;;;;;14.80;62.40;;;;;;4996673;28;19938;-89
2022/04/07 04:33:39;;;;;;;;;;;14.80;62.50;;;;;;4997088;28;19941;-90
2022/04/07 04:36:05;;;;;;;;;;;14.90;61.80;;;;;;4991436;28;20001;-91
2022/04/07 04:38:30;;;;;;;;;;;14.70;61.80;;;;;;4978828;28;19914;-90
2022/04/07 04:40:56;;;;;;;;;;;14.80;61.90;;;;;;4976604;28;19913;-90
2022/04/07 04:43:21;;;;;;;;;;;14.90;61.80;;;;;;4986685;28;20305;-89
2022/04/07 04:45:47;;;;;;;;;;;15.00;61.80;;;;;;4997148;28;20370;-89
2022/04/07 04:48:12;;;;;;;;;;;15.10;61.60;;;;;;4990945;28;19914;-90
2022/04/07 04:50:38;;;;;;;;;;;15.00;61.20;;;;;;4980087;28;19902;-90
2022/04/07 04:53:03;;;;;;;;;;;15.00;61.60;;;;;;4997111;28;19920;-89
2022/04/07 04:55:29;;;;;;;;;;;15.10;61.60;;;;;;4995486;28;19917;-89
2022/04/07 04:57:54;;;;;;;;;;;15.00;61.00;;;;;;4972391;28;20572;-89
2022/04/07 05:00:20;;;;;;;;;;;15.10;61.30;;;;;;4978321;28;19921;-89
2022/04/07 05:02:45;;;;;;;;;;;15.10;61.10;;;;;;4998163;28;19956;-89
2022/04/07 05:05:12;;;;;;;;;;;15.10;60.60;;;;;;4995256;28;19922;-91
2022/04/07 05:07:38;;;;;;;;;;;15.00;61.10;;;;;;4997332;28;19920;-88
2022/04/07 05:10:04;;;;;;;;;;;15.10;60.60;;;;;;4976727;28;19918;-90
2022/04/07 05:12:30;;;;;;;;;;;15.00;60.60;;;;;;4997198;28;19925;-90
2022/04/07 05:14:55;;;;;;;;;;;15.10;60.30;;;;;;4990144;28;19922;-90
2022/04/07 05:17:21;;;;;;;;;;;14.90;60.30;;;;;;4975334;28;20067;-89
2022/04/07 05:19:47;;;;;;;;;;;15.00;60.40;;;;;;4992260;28;19947;-90
2022/04/07 05:22:12;;;;;;;;;;;14.80;60.40;;;;;;5000371;28;19984;-90
2022/04/07 05:24:38;;;;;;;;;;;15.10;60.60;;;;;;4978368;28;19936;-88
2022/04/07 05:27:03;;;;;;;;;;;15.10;60.20;;;;;;4994439;28;19918;-89
2022/04/07 05:29:29;;;;;;;;;;;15.20;60.00;;;;;;4990964;28;19925;-90
2022/04/07 05:31:54;;;;;;;;;;;15.20;60.00;;;;;;4997927;28;19948;-88
2022/04/07 05:34:20;;;;;;;;;;;15.10;60.50;;;;;;4978940;28;19926;-90
2022/04/07 05:36:45;;;;;;;;;;;15.20;60.20;;;;;;4990664;28;19918;-90
2022/04/07 05:39:12;;;;;;;;;;;15.30;60.00;;;;;;4981620;28;19941;-88
2022/04/07 05:41:38;;;;;;;;;;;15.30;60.00;;;;;;4989294;28;19914;-90
2022/04/07 05:44:04;;;;;;;;;;;15.30;59.90;;;;;;4983962;28;19972;-89
2022/04/07 05:46:29;;;;;;;;;;;15.40;60.30;;;;;;4979196;28;19926;-90
2022/04/07 05:48:55;;;;;;;;;;;15.30;59.90;;;;;;4995088;28;19928;-89
2022/04/07 05:51:20;;;;;;;;;;;15.50;60.40;;;;;;4990499;28;19941;-89
2022/04/07 05:53:46;;;;;;;;;;;15.70;60.40;;;;;;4984211;28;19921;-87
2022/04/07 05:56:11;;;;;;;;;;;15.80;60.20;;;;;;4984477;28;20618;-89
2022/04/07 05:58:37;;;;;;;;;;;15.90;60.20;;;;;;4998742;28;19918;-89
2022/04/07 06:01:02;;;;;;;;;;;15.80;59.10;;;;;;4996701;28;20009;-89
2022/04/07 06:03:28;;;;;;;;;;;15.90;59.20;;;;;;4988114;28;19922;-89
2022/04/07 06:05:53;;;;;;;;;;;15.60;59.00;;;;;;4977314;28;19988;-88
2022/04/07 06:08:19;;;;;;;;;;;15.30;59.50;;;;;;4982706;28;19914;-88
2022/04/07 06:10:45;;;;;;;;;;;15.20;60.20;;;;;;4984545;28;20400;-90
2022/04/07 06:13:11;;;;;;;;;;;15.10;60.80;;;;;;4991235;28;19914;-90
2022/04/07 06:15:37;;;;;;;;;;;15.10;61.20;;;;;;4976092;28;19976;-91
2022/04/07 06:18:05;;;;;;;;;;;15.10;61.30;;;;;;4994064;28;19910;-91
2022/04/07 06:20:31;;;;;;;;;;;15.20;61.60;;;;;;4979006;28;19960;-90
2022/04/07 06:22:57;;;;;;;;;;;15.20;61.60;;;;;;4978911;28;19926;-89
2022/04/07 06:25:22;;;;;;;;;;;15.10;61.80;;;;;;4978854;28;19918;-89
2022/04/07 06:27:48;;;;;;;;;;;15.10;61.30;;;;;;4996812;28;21104;-91
2022/04/07 06:30:17;;;;;;;;;;;15.20;61.80;;;;;;4989564;28;19945;-90
2022/04/07 06:32:43;;;;;;;;;;;15.10;61.50;;;;;;4980897;28;20366;-91
2022/04/07 06:35:12;;;;;;;;;;;15.10;61.80;;;;;;4978136;28;20060;-91
2022/04/07 06:37:55;;;;;;;;;;;15.20;61.80;;;;;;4991686;28;20004;-90
2022/04/07 06:40:25;;;;;;;;;;;15.20;61.80;;;;;;4997341;28;19953;-90
2022/04/07 06:42:52;;;;;;;;;;;15.10;61.70;;;;;;4989642;28;19971;-89
2022/04/07 06:45:17;;;;;;;;;;;15.20;62.10;;;;;;4984115;28;20004;-90
2022/04/07 06:47:43;;;;;;;;;;;15.20;62.20;;;;;;4990293;28;20033;-90
2022/04/07 06:50:10;;;;;;;;;;;15.30;62.40;;;;;;4971287;28;20056;-89
2022/04/07 06:52:36;;;;;;;;;;;15.50;62.40;;;;;;4994022;28;19918;-91
2022/04/07 06:55:01;;;;;;;;;;;15.40;62.30;;;;;;4993920;28;20271;-90
2022/04/07 06:57:27;;;;;;;;;;;15.70;62.70;;;;;;4984902;28;19925;-89
2022/04/07 06:59:52;;;;;;;;;;;15.70;61.80;;;;;;4989759;28;19924;-89
2022/04/07 07:02:18;;;;;;;;;;;15.80;61.40;;;;;;4977077;28;19949;-88
2022/04/07 07:04:43;;;;;;;;;;;16.10;61.10;;;;;;4997180;28;19918;-91
2022/04/07 07:07:10;;;;;;;;;;;16.10;61.00;;;;;;4993006;28;19922;-89
2022/04/07 07:09:36;;;;;;;;;;;16.20;60.70;;;;;;4997978;28;19918;-88
2022/04/07 07:12:02;;;;;;;;;;;16.20;59.90;;;;;;4999018;28;19928;-91
2022/04/07 07:14:27;;;;;;;;;;;16.20;59.30;;;;;;5014789;28;19913;-88
2022/04/07 07:16:53;;;;;;;;;;;16.10;58.80;;;;;;4998833;28;20600;-89
2022/04/07 07:19:18;;;;;;;;;;;16.20;58.30;;;;;;4998188;28;19964;-89
2022/04/07 07:21:44;;;;;;;;;;;16.10;58.60;;;;;;4998503;28;19918;-89
2022/04/07 07:24:10;;;;;;;;;;;16.20;59.50;;;;;;4996438;28;20003;-89
2022/04/07 07:26:35;;;;;;;;;;;16.10;59.80;;;;;;4996146;28;20304;-90
2022/04/07 07:29:02;;;;;;;;;;;15.90;59.40;;;;;;4996505;28;20447;-91
2022/04/07 07:31:27;;;;;;;;;;;15.80;60.20;;;;;;4997093;28;20000;-91
2022/04/07 07:33:52;;;;;;;;;;;15.70;60.80;;;;;;4993365;28;19945;-91
2022/04/07 07:36:18;;;;;;;;;;;15.50;61.40;;;;;;4996165;28;19920;-91
2022/04/07 07:38:45;;;;;;;;;;;15.30;61.00;;;;;;4997992;28;19902;-91
2022/04/07 07:41:11;;;;;;;;;;;15.30;61.80;;;;;;4997066;28;19918;-93
2022/04/07 07:43:36;;;;;;;;;;;15.40;61.50;;;;;;4997674;28;19925;-90
2022/04/07 07:46:02;;;;;;;;;;;15.50;62.00;;;;;;4996793;28;20019;-92
2022/04/07 07:48:27;;;;;;;;;;;15.40;62.00;;;;;;4999653;28;19969;-91
2022/04/07 07:50:53;;;;;;;;;;;15.30;62.30;;;;;;4998511;28;19914;-92
2022/04/07 07:53:19;;;;;;;;;;;15.30;62.40;;;;;;4982585;28;19925;-91
2022/04/07 07:55:45;;;;;;;;;;;15.30;62.50;;;;;;4983898;28;20308;-91
2022/04/07 07:58:11;;;;;;;;;;;15.20;62.50;;;;;;4983699;28;19956;-94
2022/04/07 08:00:36;;;;;;;;;;;15.20;62.10;;;;;;4978092;28;20519;-92
2022/04/07 08:03:02;;;;;;;;;;;15.00;62.40;;;;;;4992452;28;19929;-92
2022/04/07 08:05:28;;;;;;;;;;;14.90;62.90;;;;;;5001225;28;20266;-94
2022/04/07 08:07:53;;;;;;;;;;;15.00;63.10;;;;;;4985151;28;19902;-94
2022/04/07 08:10:19;;;;;;;;;;;15.00;63.20;;;;;;5000959;28;19914;-96
2022/04/07 08:12:44;;;;;;;;;;;14.80;63.40;;;;;;4984052;28;19914;-93
2022/04/07 08:15:09;;;;;;;;;;;14.80;63.80;;;;;;4983870;28;19921;-96
2022/04/07 08:17:35;;;;;;;;;;;14.70;64.20;;;;;;4985109;28;19918;-94
2022/04/07 08:20:02;;;;;;;;;;;14.70;64.00;;;;;;4981913;28;20478;-90
2022/04/07 08:22:27;;;;;;;;;;;14.60;64.50;;;;;;4985125;28;19921;-93
2022/04/07 08:24:55;;;;;;;;;;;14.60;64.70;;;;;;4992648;28;19914;-94
2022/04/07 08:27:21;;;;;;;;;;;14.60;64.80;;;;;;4983416;28;19914;-94
2022/04/07 08:29:46;;;;;;;;;;;14.50;64.60;;;;;;4996204;28;19991;-93
2022/04/07 08:32:12;;;;;;;;;;;14.50;64.80;;;;;;4985074;28;19958;-94
2022/04/07 08:34:38;;;;;;;;;;;14.50;64.90;;;;;;5000390;28;19964;-93
2022/04/07 08:37:04;;;;;;;;;;;14.50;65.10;;;;;;5001394;28;19925;-92
2022/04/07 08:39:29;;;;;;;;;;;14.70;65.30;;;;;;4986325;28;20392;-93
2022/04/07 08:41:56;;;;;;;;;;;14.70;65.50;;;;;;4996769;28;19918;-93
2022/04/07 08:44:23;;;;;;;;;;;14.70;65.80;;;;;;4997788;28;19925;-93
2022/04/07 08:46:53;;;;;;;;;;;14.80;65.70;;;;;;4985818;28;19948;-95
2022/04/07 08:49:22;;;;;;;;;;;14.80;65.50;;;;;;4976129;28;20337;-94
2022/04/07 08:51:50;;;;;;;;;;;14.80;65.60;;;;;;4986999;28;19918;-93
2022/04/07 08:54:15;;;;;;;;;;;14.90;65.60;;;;;;4986551;28;19933;-93
2022/04/07 08:56:41;;;;;;;;;;;14.90;65.70;;;;;;4986694;28;19922;-95
2022/04/07 08:59:06;;;;;;;;;;;14.90;65.50;;;;;;4994959;28;19976;-94
2022/04/07 09:01:32;;;;;;;;;;;14.90;65.60;;;;;;5002829;28;19918;-93
2022/04/07 09:03:57;;;;;;;;;;;15.00;65.40;;;;;;4985910;28;19926;-93
2022/04/07 09:06:23;;;;;;;;;;;14.80;65.60;;;;;;5003626;28;19914;-95
2022/04/07 09:08:49;;;;;;;;;;;14.80;65.50;;;;;;5002797;28;19926;-93
2022/04/07 09:11:16;;;;;;;;;;;14.80;65.50;;;;;;4984984;28;20076;-95
2022/04/07 09:13:44;;;;;;;;;;;14.80;65.80;;;;;;5001813;28;20365;-93
2022/04/07 09:16:12;;;;;;;;;;;14.90;66.10;;;;;;5003927;28;19924;-95
2022/04/07 09:18:42;;;;;;;;;;;15.00;66.10;;;;;;5000694;28;19973;-94
2022/04/07 09:21:15;;;;;;;;;;;15.00;66.20;;;;;;5000697;28;19914;-93
2022/04/07 09:23:41;;;;;;;;;;;15.00;66.00;;;;;;4999007;28;19929;-92
2022/04/07 09:26:14;;;;;;;;;;;15.10;66.20;;;;;;4984124;28;19913;-92
2022/04/07 09:28:40;;;;;;;;;;;15.20;66.20;;;;;;4995634;28;19949;-92
2022/04/07 09:31:06;;;;;;;;;;;15.40;66.50;;;;;;5001572;28;19925;-94
2022/04/07 09:33:32;;;;;;;;;;;15.40;66.40;;;;;;4986265;28;19924;-94
2022/04/07 09:36:02;;;;;;;;;;;15.60;66.60;;;;;;4989434;28;19917;-94
2022/04/07 09:38:30;;;;;;;;;;;15.80;66.50;;;;;;4984406;28;19918;-91
2022/04/07 09:41:04;;;;;;;;;;;15.80;66.40;;;;;;4987987;28;19906;-95
2022/04/07 09:43:32;;;;;;;;;;;15.90;66.20;;;;;;5000846;28;19997;-95
2022/04/07 09:45:57;;;;;;;;;;;15.90;66.00;;;;;;4985882;28;19913;-95
2022/04/07 09:48:24;;;;;;;;;;;15.80;66.10;;;;;;4995601;28;19949;-93
2022/04/07 09:51:03;;;;;;;;;;;15.70;65.80;;;;;;4994092;28;19922;-91
2022/04/07 09:53:39;;;;;;;;;;;15.70;65.70;;;;;;4996695;28;19973;-94
2022/04/07 09:56:05;;;;;;;;;;;15.90;65.90;;;;;;4991140;28;19981;-96
2022/04/07 09:58:31;;;;;;;;;;;16.00;65.80;;;;;;4998771;28;19924;-95
2022/04/07 10:00:59;;;;;;;;;;;16.00;65.70;;;;;;4984432;28;19914;-91
2022/04/07 10:03:27;;;;;;;;;;;16.00;65.40;;;;;;5002015;28;19945;-93
2022/04/07 10:05:52;;;;;;;;;;;16.00;65.20;;;;;;4979690;28;19929;-92
2022/04/07 10:08:18;;;;;;;;;;;15.00;52.00;;;;;;4995151;28;20285;-93
2022/04/07 10:10:43;;;;;;;;;;;13.80;51.00;;;;;;4997597;28;19921;-94
2022/04/07 10:13:09;;;;;;;;;;;13.00;52.60;;;;;;4981454;28;19914;-93
2022/04/07 10:15:35;;;;;;;;;;;12.50;54.90;;;;;;4984839;28;19918;-93
2022/04/07 10:18:04;;;;;;;;;;;12.30;57.10;;;;;;5002613;28;19922;-94
2022/04/07 10:20:33;;;;;;;;;;;12.20;58.50;;;;;;4986804;28;19964;-92
2022/04/07 10:23:18;;;;;;;;;;;12.20;59.90;;;;;;4968242;28;19922;-95
2022/04/07 10:25:46;;;;;;;;;;;12.10;60.70;;;;;;5001699;28;19913;-93
2022/04/07 10:28:11;;;;;;;;;;;12.10;61.60;;;;;;4984986;28;19986;-94
2022/04/07 10:30:50;;;;;;;;;;;12.10;62.40;;;;;;5003811;28;19945;-92
2022/04/07 10:33:32;;;;;;;;;;;12.20;63.10;;;;;;4999788;28;19929;-95
2022/04/07 10:35:58;;;;;;;;;;;12.30;63.50;;;;;;4994535;28;19925;-95
2022/04/07 10:38:35;;;;;;;;;;;12.50;64.20;;;;;;4986377;28;19906;-93
2022/04/07 10:41:01;;;;;;;;;;;12.80;65.20;;;;;;5001007;28;19921;-92
2022/04/07 10:43:27;;;;;;;;;;;13.10;65.40;;;;;;5002537;28;19936;-93
2022/04/07 10:46:01;;;;;;;;;;;13.30;65.00;;;;;;5005209;28;19977;-93
2022/04/07 10:48:28;;;;;;;;;;;13.50;65.00;;;;;;5006165;28;19921;-94
2022/04/07 10:50:58;;;;;;;;;;;13.70;65.20;;;;;;5007222;28;19929;-92
2022/04/07 10:53:25;;;;;;;;;;;14.00;65.60;;;;;;4989501;28;19929;-93
2022/04/07 10:55:54;;;;;;;;;;;14.50;65.80;;;;;;5005836;28;19922;-91
2022/04/07 10:58:20;;;;;;;;;;;14.90;65.70;;;;;;4988901;28;19921;-92
2022/04/07 11:00:46;;;;;;;;;;;15.30;65.70;;;;;;4987176;28;19922;-94
2022/04/07 11:03:12;;;;;;;;;;;15.80;65.40;;;;;;5002776;28;19926;-91
2022/04/07 11:05:51;;;;;;;;;;;16.40;65.40;;;;;;5001721;28;19917;-92
2022/04/07 11:08:20;;;;;;;;;;;17.00;64.80;;;;;;4999824;28;19949;-92
2022/04/07 11:10:48;;;;;;;;;;;17.60;64.30;;;;;;5005099;28;19929;-93
2022/04/07 11:13:14;;;;;;;;;;;17.90;63.70;;;;;;4981401;28;19917;-92
2022/04/07 11:15:55;;;;;;;;;;;18.00;62.20;;;;;;4982185;28;20254;-91
2022/04/07 11:18:38;;;;;;;;;;;18.20;61.80;;;;;;4988899;28;19914;-90
2022/04/07 11:21:08;;;;;;;;;;;18.30;60.50;;;;;;4994051;28;19918;-92
2022/04/07 11:23:44;;;;;;;;;;;18.10;59.20;;;;;;4998472;28;19972;-91
2022/04/07 11:26:28;;;;;;;;;;;18.00;60.30;;;;;;4998483;28;20586;-91
2022/04/07 11:29:02;;;;;;;;;;;18.10;60.80;;;;;;4984214;28;19917;-90
2022/04/07 11:31:43;;;;;;;;;;;18.20;61.10;;;;;;5002202;28;20449;-90
2022/04/07 11:34:27;;;;;;;;;;;18.20;60.80;;;;;;4992436;28;19921;-89
2022/04/07 11:36:53;;;;;;;;;;;18.20;60.90;;;;;;4995494;28;19929;-91
2022/04/07 11:39:19;;;;;;;;;;;18.30;61.30;;;;;;4997404;28;19918;-89
2022/04/07 11:41:44;;;;;;;;;;;18.50;61.10;;;;;;4997390;28;20004;-90
2022/04/07 11:44:11;;;;;;;;;;;18.60;61.30;;;;;;4996209;28;19925;-91
2022/04/07 11:46:37;;;;;;;;;;;18.60;61.40;;;;;;4992895;28;19921;-91
2022/04/07 11:49:04;;;;;;;;;;;18.70;61.50;;;;;;4980244;28;19922;-91
2022/04/07 11:51:32;;;;;;;;;;;18.80;62.30;;;;;;4997808;28;19997;-90
2022/04/07 11:53:58;;;;;;;;;;;19.50;62.50;;;;;;4997048;28;20600;-90
2022/04/07 11:56:34;;;;;;;;;;;19.90;61.60;;;;;;4989527;28;19918;-90
2022/04/07 11:59:10;;;;;;;;;;;20.20;61.20;;;;;;4993749;28;19914;-90
2022/04/07 12:01:36;;;;;;;;;;;20.70;61.20;;;;;;4982526;28;20388;-90
2022/04/07 12:04:03;;;;;;;;;;;20.80;60.80;;;;;;5002409;28;20017;-91
2022/04/07 12:06:30;;;;;;;;;;;20.90;60.90;;;;;;4986313;28;19964;-89
2022/04/07 12:08:55;;;;;;;;;;;21.10;60.30;;;;;;4980376;28;19992;-90
2022/04/07 12:11:22;;;;;;;;;;;21.30;59.50;;;;;;4980097;28;19985;-90
2022/04/07 12:13:49;;;;;;;;;;;21.50;59.40;;;;;;4984489;28;19925;-90
2022/04/07 12:16:15;;;;;;;;;;;21.70;59.00;;;;;;4988051;28;19952;-90
2022/04/07 12:18:40;;;;;;;;;;;21.90;58.80;;;;;;4994806;28;19926;-90
2022/04/07 12:21:06;;;;;;;;;;;22.50;59.60;;;;;;4980631;28;19914;-91
2022/04/07 12:23:32;;;;;;;;;;;23.10;58.20;;;;;;4982257;28;19993;-90
2022/04/07 12:25:59;;;;;;;;;;;23.70;57.50;;;;;;4998055;28;19926;-90
2022/04/07 12:28:31;;;;;;;;;;;24.00;56.90;;;;;;4997807;28;20428;-90
2022/04/07 12:30:56;;;;;;;;;;;24.30;55.10;;;;;;4992159;28;19918;-91
2022/04/07 12:33:40;;;;;;;;;;;24.60;54.40;;;;;;4980261;28;19937;-91
2022/04/07 12:36:07;;;;;;;;;;;24.70;52.70;;;;;;4979002;28;19925;-90
2022/04/07 12:38:32;;;;;;;;;;;24.50;53.70;;;;;;4980533;28;20610;-90
2022/04/07 12:41:08;;;;;;;;;;;24.00;52.60;;;;;;4998261;28;19914;-91
2022/04/07 12:43:43;;;;;;;;;;;23.30;53.60;;;;;;4980698;28;19922;-91
2022/04/07 12:46:09;;;;;;;;;;;22.10;52.60;;;;;;5003519;28;19953;-93
2022/04/07 12:48:35;;;;;;;;;;;20.90;53.50;;;;;;4986402;28;19928;-92
2022/04/07 12:51:21;;;;;;;;;;;20.30;56.60;;;;;;5001666;28;19918;-91
2022/04/07 12:53:46;;;;;;;;;;;20.60;56.80;;;;;;4981561;28;20344;-91
2022/04/07 12:56:27;;;;;;;;;;;20.90;55.50;;;;;;4982600;28;19956;-90
2022/04/07 12:59:00;;;;;;;;;;;21.30;55.50;;;;;;4979966;28;20329;-92
2022/04/07 13:01:25;;;;;;;;;;;21.80;55.50;;;;;;4981062;28;19917;-91
2022/04/07 13:03:51;;;;;;;;;;;22.10;54.60;;;;;;4999201;28;19949;-91
2022/04/07 13:06:16;;;;;;;;;;;22.30;54.80;;;;;;4981888;28;19926;-91
2022/04/07 13:08:42;;;;;;;;;;;22.60;54.80;;;;;;4996208;28;20334;-92
2022/04/07 13:11:07;;;;;;;;;;;22.80;53.40;;;;;;4980826;28;20381;-90
2022/04/07 13:13:33;;;;;;;;;;;22.90;53.20;;;;;;4999283;28;19913;-89
2022/04/07 13:15:58;;;;;;;;;;;23.00;52.90;;;;;;4998904;28;19968;-91
2022/04/07 13:18:24;;;;;;;;;;;23.00;51.80;;;;;;4997811;28;19922;-92
2022/04/07 13:20:49;;;;;;;;;;;23.00;52.00;;;;;;4981271;28;20385;-89
2022/04/07 13:23:15;;;;;;;;;;;23.00;52.30;;;;;;4979618;28;19933;-90
2022/04/07 13:25:40;;;;;;;;;;;22.90;52.10;;;;;;4996567;28;20738;-90
2022/04/07 13:28:05;;;;;;;;;;;22.50;51.00;;;;;;4996689;28;20332;-90
2022/04/07 13:30:31;;;;;;;;;;;22.10;52.20;;;;;;4994884;28;19921;-87
2022/04/07 13:32:56;;;;;;;;;;;21.80;51.50;;;;;;4979641;28;19914;-89
2022/04/07 13:35:22;;;;;;;;;;;21.30;53.80;;;;;;4994995;28;19922;-90
2022/04/07 13:37:47;;;;;;;;;;;21.10;54.00;;;;;;4977955;28;19922;-88
2022/04/07 13:40:13;;;;;;;;;;;20.80;53.50;;;;;;4995468;28;19918;-91
2022/04/07 13:42:38;;;;;;;;;;;20.60;54.70;;;;;;4981457;28;19925;-88
2022/04/07 13:45:05;;;;;;;;;;;20.30;55.60;;;;;;4978962;28;19918;-89
2022/04/07 13:47:31;;;;;;;;;;;20.10;55.30;;;;;;4996598;28;19950;-91
2022/04/07 13:49:56;;;;;;;;;;;19.90;54.70;;;;;;4980452;28;19918;-88
2022/04/07 13:52:22;;;;;;;;;;;19.80;55.70;;;;;;4979480;28;19918;-89
2022/04/07 13:54:47;;;;;;;;;;;19.70;57.00;;;;;;4998183;28;20263;-88
2022/04/07 13:57:13;;;;;;;;;;;19.60;56.80;;;;;;4978720;28;19918;-90
2022/04/07 13:59:38;;;;;;;;;;;19.50;57.30;;;;;;4978831;28;19925;-89
2022/04/07 14:02:04;;;;;;;;;;;19.40;56.00;;;;;;4980926;28;19929;-89
2022/04/07 14:04:29;;;;;;;;;;;19.40;57.30;;;;;;4980924;28;19941;-90
2022/04/07 14:07:00;;;;;;;;;;;19.30;57.20;;;;;;4976113;28;19956;-90
2022/04/07 14:09:26;;;;;;;;;;;19.20;57.00;;;;;;4976505;28;19932;-90
2022/04/07 14:11:52;;;;;;;;;;;19.10;56.60;;;;;;4967886;28;20306;-90
2022/04/07 14:14:17;;;;;;;;;;;19.00;56.80;;;;;;4961306;28;19923;-90
2022/04/07 14:16:42;;;;;;;;;;;18.80;56.40;;;;;;4960169;28;20286;-91